sensor_id;sensor_type;location;lat;lon;timestamp;pressure;altitude;pressure_sealevel;temperature;humidity
11345;BME280;5727;42.600;23.028;2023-01-29T00:00:19;93737.06;;;0.97;100.00
11345;BME280;5727;42.600;23.028;2023-01-29T00:02:46;93733.94;;;1.00;100.00
11345;BME280;5727;42.600;23.028;2023-01-29T00:05:13;93738.38;;;0.89;100.00
11345;BME280;5727;42.600;23.028;2023-01-29T00:07:41;93742.84;;;0.69;100.00
11345;BME280;5727;42.600;23.028;2023-01-29T00:10:09;93746.97;;;0.75;100.00
11345;BME280;5727;42.600;23.028;2023-01-29T00:12:36;93746.38;;;0.83;100.00
11345;BME280;5727;42.600;23.028;2023-01-29T00:15:03;93751.84;;;0.76;100.00
11345;BME280;5727;42.600;23.028;2023-01-29T00:17:30;93746.22;;;0.64;100.00
11345;BME280;5727;42.600;23.028;2023-01-29T00:19:57;93747.00;;;0.65;100.00
11345;BME280;5727;42.600;23.028;2023-01-29T00:22:23;93742.28;;;0.82;100.00
11345;BME280;5727;42.600;23.028;2023-01-29T00:24:51;93753.59;;;0.96;100.00
11345;BME280;5727;42.600;23.028;2023-01-29T00:27:18;93750.16;;;1.11;100.00
11345;BME280;5727;42.600;23.028;2023-01-29T00:29:45;93748.78;;;1.23;100.00
11345;BME280;5727;42.600;23.028;2023-01-29T00:32:31;93751.81;;;1.35;100.00
11345;BME280;5727;42.600;23.028;2023-01-29T00:34:58;93748.72;;;1.33;100.00
11345;BME280;5727;42.600;23.028;2023-01-29T00:37:25;93751.13;;;1.25;100.00
11345;BME280;5727;42.600;23.028;2023-01-29T00:39:53;93749.78;;;1.27;100.00
11345;BME280;5727;42.600;23.028;2023-01-29T00:42:20;93755.47;;;1.29;100.00
11345;BME280;5727;42.600;23.028;2023-01-29T00:45:05;93754.69;;;1.34;100.00
11345;BME280;5727;42.600;23.028;2023-01-29T00:47:32;93752.72;;;1.11;100.00
11345;BME280;5727;42.600;23.028;2023-01-29T00:49:59;93755.31;;;1.11;100.00
11345;BME280;5727;42.600;23.028;2023-01-29T00:52:26;93754.84;;;0.99;100.00
11345;BME280;5727;42.600;23.028;2023-01-29T00:54:56;93750.53;;;0.84;100.00
11345;BME280;5727;42.600;23.028;2023-01-29T00:57:25;93747.47;;;0.72;100.00
11345;BME280;5727;42.600;23.028;2023-01-29T00:59:52;93741.28;;;0.68;100.00
11345;BME280;5727;42.600;23.028;2023-01-29T01:02:19;93741.53;;;0.76;100.00
11345;BME280;5727;42.600;23.028;2023-01-29T01:05:05;93756.47;;;0.84;100.00
11345;BME280;5727;42.600;23.028;2023-01-29T01:07:32;93751.00;;;0.96;100.00
11345;BME280;5727;42.600;23.028;2023-01-29T01:10:00;93745.31;;;0.99;100.00
11345;BME280;5727;42.600;23.028;2023-01-29T01:12:44;93746.78;;;1.15;100.00
11345;BME280;5727;42.600;23.028;2023-01-29T01:15:11;93744.72;;;1.12;100.00
11345;BME280;5727;42.600;23.028;2023-01-29T01:17:38;93743.44;;;1.10;100.00
11345;BME280;5727;42.600;23.028;2023-01-29T01:20:06;93745.78;;;1.11;100.00
11345;BME280;5727;42.600;23.028;2023-01-29T01:22:32;93745.22;;;1.14;100.00
11345;BME280;5727;42.600;23.028;2023-01-29T01:25:01;93739.06;;;1.10;100.00
11345;BME280;5727;42.600;23.028;2023-01-29T01:27:28;93738.78;;;1.17;100.00
11345;BME280;5727;42.600;23.028;2023-01-29T01:29:54;93741.53;;;1.25;100.00
11345;BME280;5727;42.600;23.028;2023-01-29T01:32:21;93742.56;;;1.29;100.00
11345;BME280;5727;42.600;23.028;2023-01-29T01:34:48;93746.19;;;1.28;100.00
11345;BME280;5727;42.600;23.028;2023-01-29T01:37:14;93751.31;;;1.38;100.00
11345;BME280;5727;42.600;23.028;2023-01-29T01:39:41;93744.84;;;1.36;100.00
11345;BME280;5727;42.600;23.028;2023-01-29T01:42:14;93754.44;;;1.30;100.00
11345;BME280;5727;42.600;23.028;2023-01-29T01:44:50;93742.69;;;1.09;100.00
11345;BME280;5727;42.600;23.028;2023-01-29T01:47:19;93752.06;;;0.85;100.00
11345;BME280;5727;42.600;23.028;2023-01-29T01:49:48;93751.59;;;0.68;100.00
11345;BME280;5727;42.600;23.028;2023-01-29T01:52:16;93755.50;;;0.60;100.00
11345;BME280;5727;42.600;23.028;2023-01-29T01:54:43;93755.50;;;0.50;100.00
11345;BME280;5727;42.600;23.028;2023-01-29T01:57:15;93749.06;;;0.53;100.00
11345;BME280;5727;42.600;23.028;2023-01-29T01:59:54;93746.75;;;0.61;100.00
11345;BME280;5727;42.600;23.028;2023-01-29T02:02:23;93745.72;;;0.52;100.00
11345;BME280;5727;42.600;23.028;2023-01-29T02:05:10;93754.22;;;0.63;100.00
11345;BME280;5727;42.600;23.028;2023-01-29T02:07:56;93744.88;;;0.77;100.00
11345;BME280;5727;42.600;23.028;2023-01-29T02:10:43;93755.38;;;0.90;100.00
11345;BME280;5727;42.600;23.028;2023-01-29T02:13:11;93746.81;;;1.00;100.00
11345;BME280;5727;42.600;23.028;2023-01-29T02:15:40;93751.03;;;0.81;100.00
11345;BME280;5727;42.600;23.028;2023-01-29T02:18:11;93745.88;;;0.86;100.00
11345;BME280;5727;42.600;23.028;2023-01-29T02:20:40;93753.63;;;0.81;100.00
11345;BME280;5727;42.600;23.028;2023-01-29T02:23:37;93753.66;;;0.76;100.00
11345;BME280;5727;42.600;23.028;2023-01-29T02:26:15;93746.41;;;0.78;100.00
11345;BME280;5727;42.600;23.028;2023-01-29T02:28:51;93758.03;;;0.80;100.00
11345;BME280;5727;42.600;23.028;2023-01-29T02:31:29;93760.09;;;0.78;100.00
11345;BME280;5727;42.600;23.028;2023-01-29T02:34:05;93762.44;;;0.75;100.00
11345;BME280;5727;42.600;23.028;2023-01-29T02:36:42;93759.34;;;0.68;100.00
11345;BME280;5727;42.600;23.028;2023-01-29T02:39:15;93761.16;;;0.62;100.00
11345;BME280;5727;42.600;23.028;2023-01-29T02:41:45;93758.59;;;0.62;100.00
11345;BME280;5727;42.600;23.028;2023-01-29T02:44:23;93756.75;;;0.68;100.00
11345;BME280;5727;42.600;23.028;2023-01-29T02:46:57;93775.09;;;0.56;100.00
11345;BME280;5727;42.600;23.028;2023-01-29T02:49:31;93773.78;;;0.64;100.00
11345;BME280;5727;42.600;23.028;2023-01-29T02:52:02;93774.53;;;0.69;100.00
11345;BME280;5727;42.600;23.028;2023-01-29T02:54:38;93779.44;;;0.66;100.00
11345;BME280;5727;42.600;23.028;2023-01-29T02:57:10;93772.78;;;0.65;100.00
11345;BME280;5727;42.600;23.028;2023-01-29T02:59:46;93778.38;;;0.77;100.00
11345;BME280;5727;42.600;23.028;2023-01-29T03:02:18;93772.75;;;0.75;100.00
11345;BME280;5727;42.600;23.028;2023-01-29T03:04:50;93783.31;;;0.68;100.00
11345;BME280;5727;42.600;23.028;2023-01-29T03:07:23;93779.47;;;0.61;100.00
11345;BME280;5727;42.600;23.028;2023-01-29T03:10:08;93780.03;;;0.33;100.00
11345;BME280;5727;42.600;23.028;2023-01-29T03:12:37;93784.16;;;0.39;100.00
11345;BME280;5727;42.600;23.028;2023-01-29T03:15:09;93781.31;;;0.35;100.00
11345;BME280;5727;42.600;23.028;2023-01-29T03:17:42;93778.50;;;0.42;100.00
11345;BME280;5727;42.600;23.028;2023-01-29T03:20:15;93785.72;;;0.40;100.00
11345;BME280;5727;42.600;23.028;2023-01-29T03:22:45;93783.88;;;0.55;100.00
11345;BME280;5727;42.600;23.028;2023-01-29T03:25:17;93780.50;;;0.60;100.00
11345;BME280;5727;42.600;23.028;2023-01-29T03:28:04;93786.19;;;0.57;100.00
11345;BME280;5727;42.600;23.028;2023-01-29T03:30:53;93785.69;;;0.55;100.00
11345;BME280;5727;42.600;23.028;2023-01-29T03:33:41;93779.75;;;0.49;100.00
11345;BME280;5727;42.600;23.028;2023-01-29T03:36:13;93781.84;;;0.37;100.00
11345;BME280;5727;42.600;23.028;2023-01-29T03:38:40;93783.16;;;0.20;100.00
11345;BME280;5727;42.600;23.028;2023-01-29T03:41:11;93788.56;;;0.13;100.00
11345;BME280;5727;42.600;23.028;2023-01-29T03:43:46;93785.22;;;0.08;100.00
11345;BME280;5727;42.600;23.028;2023-01-29T03:46:23;93777.22;;;0.04;100.00
11345;BME280;5727;42.600;23.028;2023-01-29T03:48:56;93783.41;;;0.18;100.00
11345;BME280;5727;42.600;23.028;2023-01-29T03:51:29;93786.25;;;0.27;100.00
11345;BME280;5727;42.600;23.028;2023-01-29T03:54:04;93791.41;;;0.17;100.00
11345;BME280;5727;42.600;23.028;2023-01-29T03:56:42;93781.09;;;0.27;100.00
11345;BME280;5727;42.600;23.028;2023-01-29T03:59:18;93783.13;;;0.40;100.00
11345;BME280;5727;42.600;23.028;2023-01-29T04:01:50;93782.38;;;0.34;100.00
11345;BME280;5727;42.600;23.028;2023-01-29T04:04:24;93781.31;;;0.45;100.00
11345;BME280;5727;42.600;23.028;2023-01-29T04:06:53;93785.19;;;0.43;100.00
11345;BME280;5727;42.600;23.028;2023-01-29T04:09:27;93785.97;;;0.28;100.00
11345;BME280;5727;42.600;23.028;2023-01-29T04:12:04;93780.81;;;0.33;100.00
11345;BME280;5727;42.600;23.028;2023-01-29T04:14:34;93784.16;;;0.34;100.00
11345;BME280;5727;42.600;23.028;2023-01-29T04:17:06;93782.13;;;0.31;100.00
11345;BME280;5727;42.600;23.028;2023-01-29T04:19:34;93785.22;;;0.23;100.00
11345;BME280;5727;42.600;23.028;2023-01-29T04:22:05;93780.31;;;0.16;100.00
11345;BME280;5727;42.600;23.028;2023-01-29T04:24:33;93787.53;;;0.09;100.00
11345;BME280;5727;42.600;23.028;2023-01-29T04:27:08;93786.00;;;0.13;100.00
11345;BME280;5727;42.600;23.028;2023-01-29T04:29:54;93786.25;;;0.07;100.00
11345;BME280;5727;42.600;23.028;2023-01-29T04:32:28;93786.78;;;0.04;100.00
11345;BME280;5727;42.600;23.028;2023-01-29T04:35:00;93787.53;;;-0.11;100.00
11345;BME280;5727;42.600;23.028;2023-01-29T04:37:35;93790.88;;;-0.11;100.00
11345;BME280;5727;42.600;23.028;2023-01-29T04:40:14;93790.91;;;-0.01;100.00
11345;BME280;5727;42.600;23.028;2023-01-29T04:42:48;93805.06;;;0.17;100.00
11345;BME280;5727;42.600;23.028;2023-01-29T04:45:20;93800.66;;;0.18;100.00
11345;BME280;5727;42.600;23.028;2023-01-29T04:47:59;93803.50;;;0.16;100.00
11345;BME280;5727;42.600;23.028;2023-01-29T04:50:31;93802.47;;;0.27;100.00
11345;BME280;5727;42.600;23.028;2023-01-29T04:53:06;93806.31;;;0.40;100.00
11345;BME280;5727;42.600;23.028;2023-01-29T04:55:39;93801.19;;;0.30;100.00
11345;BME280;5727;42.600;23.028;2023-01-29T04:58:11;93810.69;;;0.49;100.00
11345;BME280;5727;42.600;23.028;2023-01-29T05:00:42;93803.72;;;0.45;100.00
11345;BME280;5727;42.600;23.028;2023-01-29T05:03:12;93801.91;;;0.60;100.00
11345;BME280;5727;42.600;23.028;2023-01-29T05:05:41;93811.72;;;0.63;100.00
11345;BME280;5727;42.600;23.028;2023-01-29T05:08:11;93803.16;;;0.68;100.00
11345;BME280;5727;42.600;23.028;2023-01-29T05:10:39;93808.34;;;0.63;100.00
11345;BME280;5727;42.600;23.028;2023-01-29T05:13:10;93807.31;;;0.54;100.00
11345;BME280;5727;42.600;23.028;2023-01-29T05:15:43;93816.88;;;0.53;100.00
11345;BME280;5727;42.600;23.028;2023-01-29T05:18:11;93818.66;;;0.53;100.00
11345;BME280;5727;42.600;23.028;2023-01-29T05:20:40;93817.13;;;0.47;100.00
11345;BME280;5727;42.600;23.028;2023-01-29T05:23:09;93816.59;;;0.60;100.00
11345;BME280;5727;42.600;23.028;2023-01-29T05:25:40;93810.41;;;0.56;100.00
11345;BME280;5727;42.600;23.028;2023-01-29T05:28:08;93818.94;;;0.61;100.00
11345;BME280;5727;42.600;23.028;2023-01-29T05:30:41;93820.19;;;0.54;100.00
11345;BME280;5727;42.600;23.028;2023-01-29T05:33:13;93816.09;;;0.53;100.00
11345;BME280;5727;42.600;23.028;2023-01-29T05:35:41;93815.84;;;0.44;100.00
11345;BME280;5727;42.600;23.028;2023-01-29T05:38:08;93816.59;;;0.55;100.00
11345;BME280;5727;42.600;23.028;2023-01-29T05:40:41;93822.56;;;0.40;100.00
11345;BME280;5727;42.600;23.028;2023-01-29T05:43:14;93818.94;;;0.41;100.00
11345;BME280;5727;42.600;23.028;2023-01-29T05:45:42;93826.13;;;0.54;100.00
11345;BME280;5727;42.600;23.028;2023-01-29T05:48:08;93829.00;;;0.48;100.00
11345;BME280;5727;42.600;23.028;2023-01-29T05:50:37;93830.03;;;0.42;100.00
11345;BME280;5727;42.600;23.028;2023-01-29T05:53:03;93830.28;;;0.35;100.00
11345;BME280;5727;42.600;23.028;2023-01-29T05:55:30;93832.59;;;0.52;100.00
11345;BME280;5727;42.600;23.028;2023-01-29T05:57:57;93834.38;;;0.66;100.00
11345;BME280;5727;42.600;23.028;2023-01-29T06:00:24;93835.09;;;0.77;100.00
11345;BME280;5727;42.600;23.028;2023-01-29T06:02:51;93839.75;;;0.85;100.00
11345;BME280;5727;42.600;23.028;2023-01-29T06:05:18;93829.94;;;0.87;100.00
11345;BME280;5727;42.600;23.028;2023-01-29T06:07:46;93847.19;;;0.97;100.00
11345;BME280;5727;42.600;23.028;2023-01-29T06:10:14;93834.53;;;1.05;100.00
11345;BME280;5727;42.600;23.028;2023-01-29T06:12:42;93835.53;;;1.14;100.00
11345;BME280;5727;42.600;23.028;2023-01-29T06:15:10;93847.13;;;1.17;100.00
11345;BME280;5727;42.600;23.028;2023-01-29T06:17:37;93846.34;;;1.16;100.00
11345;BME280;5727;42.600;23.028;2023-01-29T06:20:04;93851.09;;;0.79;100.00
11345;BME280;5727;42.600;23.028;2023-01-29T06:22:32;93856.28;;;0.64;100.00
11345;BME280;5727;42.600;23.028;2023-01-29T06:25:00;93863.50;;;0.72;100.00
11345;BME280;5727;42.600;23.028;2023-01-29T06:27:27;93863.72;;;0.85;100.00
11345;BME280;5727;42.600;23.028;2023-01-29T06:29:53;93871.97;;;0.98;100.00
11345;BME280;5727;42.600;23.028;2023-01-29T06:32:20;93867.03;;;1.06;100.00
11345;BME280;5727;42.600;23.028;2023-01-29T06:34:47;93878.38;;;1.10;100.00
11345;BME280;5727;42.600;23.028;2023-01-29T06:37:14;93883.00;;;1.18;100.00
11345;BME280;5727;42.600;23.028;2023-01-29T06:39:41;93883.47;;;1.25;100.00
11345;BME280;5727;42.600;23.028;2023-01-29T06:42:09;93879.06;;;1.31;100.00
11345;BME280;5727;42.600;23.028;2023-01-29T06:44:36;93888.09;;;1.33;100.00
11345;BME280;5727;42.600;23.028;2023-01-29T06:47:03;93883.41;;;1.40;100.00
11345;BME280;5727;42.600;23.028;2023-01-29T06:49:30;93889.09;;;1.47;100.00
11345;BME280;5727;42.600;23.028;2023-01-29T06:51:57;93891.63;;;1.57;100.00
11345;BME280;5727;42.600;23.028;2023-01-29T06:54:23;93891.59;;;1.62;100.00
11345;BME280;5727;42.600;23.028;2023-01-29T06:56:50;93895.22;;;1.66;100.00
11345;BME280;5727;42.600;23.028;2023-01-29T06:59:18;93895.16;;;1.71;100.00
11345;BME280;5727;42.600;23.028;2023-01-29T07:01:45;93894.63;;;1.79;100.00
11345;BME280;5727;42.600;23.028;2023-01-29T07:04:12;93894.84;;;1.83;100.00
11345;BME280;5727;42.600;23.028;2023-01-29T07:06:39;93900.53;;;1.85;100.00
11345;BME280;5727;42.600;23.028;2023-01-29T07:09:06;93893.53;;;1.91;100.00
11345;BME280;5727;42.600;23.028;2023-01-29T07:11:33;93895.38;;;1.85;100.00
11345;BME280;5727;42.600;23.028;2023-01-29T07:14:02;93899.75;;;1.84;100.00
11345;BME280;5727;42.600;23.028;2023-01-29T07:16:30;93897.19;;;1.79;100.00
11345;BME280;5727;42.600;23.028;2023-01-29T07:18:57;93904.25;;;1.69;100.00
11345;BME280;5727;42.600;23.028;2023-01-29T07:21:23;93905.53;;;1.66;100.00
11345;BME280;5727;42.600;23.028;2023-01-29T07:23:50;93910.19;;;1.64;100.00
11345;BME280;5727;42.600;23.028;2023-01-29T07:26:17;93907.34;;;1.66;100.00
11345;BME280;5727;42.600;23.028;2023-01-29T07:28:45;93909.41;;;1.69;100.00
11345;BME280;5727;42.600;23.028;2023-01-29T07:31:12;93914.25;;;1.80;100.00
11345;BME280;5727;42.600;23.028;2023-01-29T07:33:41;93915.50;;;1.88;100.00
11345;BME280;5727;42.600;23.028;2023-01-29T07:36:09;93917.81;;;1.90;100.00
11345;BME280;5727;42.600;23.028;2023-01-29T07:38:36;93916.34;;;1.78;100.00
11345;BME280;5727;42.600;23.028;2023-01-29T07:41:03;93920.97;;;1.81;100.00
11345;BME280;5727;42.600;23.028;2023-01-29T07:43:30;93914.25;;;1.80;100.00
11345;BME280;5727;42.600;23.028;2023-01-29T07:46:00;93918.09;;;1.88;100.00
11345;BME280;5727;42.600;23.028;2023-01-29T07:48:27;93922.44;;;1.98;100.00
11345;BME280;5727;42.600;23.028;2023-01-29T07:50:55;93920.31;;;2.05;100.00
11345;BME280;5727;42.600;23.028;2023-01-29T07:53:22;93921.84;;;2.11;100.00
11345;BME280;5727;42.600;23.028;2023-01-29T07:55:50;93925.94;;;2.17;100.00
11345;BME280;5727;42.600;23.028;2023-01-29T07:58:17;93927.97;;;2.25;100.00
11345;BME280;5727;42.600;23.028;2023-01-29T08:00:45;93932.31;;;2.29;100.00
11345;BME280;5727;42.600;23.028;2023-01-29T08:03:13;93933.59;;;2.32;100.00
11345;BME280;5727;42.600;23.028;2023-01-29T08:05:40;93936.41;;;2.35;100.00
11345;BME280;5727;42.600;23.028;2023-01-29T08:08:09;93937.19;;;2.36;100.00
11345;BME280;5727;42.600;23.028;2023-01-29T08:10:36;93944.19;;;2.35;100.00
11345;BME280;5727;42.600;23.028;2023-01-29T08:13:03;93946.31;;;2.23;100.00
11345;BME280;5727;42.600;23.028;2023-01-29T08:15:31;93939.13;;;2.15;100.00
11345;BME280;5727;42.600;23.028;2023-01-29T08:17:57;93943.44;;;1.81;100.00
11345;BME280;5727;42.600;23.028;2023-01-29T08:20:24;93943.63;;;1.95;100.00
11345;BME280;5727;42.600;23.028;2023-01-29T08:22:58;93943.63;;;1.95;100.00
11345;BME280;5727;42.600;23.028;2023-01-29T08:25:27;93948.72;;;2.10;100.00
11345;BME280;5727;42.600;23.028;2023-01-29T08:27:55;93944.34;;;2.05;100.00
11345;BME280;5727;42.600;23.028;2023-01-29T08:30:22;93947.69;;;2.06;100.00
11345;BME280;5727;42.600;23.028;2023-01-29T08:32:48;93945.63;;;2.08;100.00
11345;BME280;5727;42.600;23.028;2023-01-29T08:35:16;93947.69;;;2.06;100.00
11345;BME280;5727;42.600;23.028;2023-01-29T08:37:42;93952.81;;;2.16;100.00
11345;BME280;5727;42.600;23.028;2023-01-29T08:40:10;93950.13;;;2.31;100.00
11345;BME280;5727;42.600;23.028;2023-01-29T08:42:39;93954.38;;;2.12;100.00
11345;BME280;5727;42.600;23.028;2023-01-29T08:45:07;93961.25;;;1.82;100.00
11345;BME280;5727;42.600;23.028;2023-01-29T08:47:35;93960.00;;;1.70;100.00
11345;BME280;5727;42.600;23.028;2023-01-29T08:50:01;93966.25;;;1.54;100.00
11345;BME280;5727;42.600;23.028;2023-01-29T08:52:29;93964.22;;;1.41;100.00
11345;BME280;5727;42.600;23.028;2023-01-29T08:54:56;93958.84;;;1.22;100.00
11345;BME280;5727;42.600;23.028;2023-01-29T08:57:22;93964.53;;;1.19;100.00
11345;BME280;5727;42.600;23.028;2023-01-29T08:59:51;93972.81;;;1.11;100.00
11345;BME280;5727;42.600;23.028;2023-01-29T09:02:18;93977.97;;;1.16;100.00
11345;BME280;5727;42.600;23.028;2023-01-29T09:04:46;93976.66;;;1.29;100.00
11345;BME280;5727;42.600;23.028;2023-01-29T09:07:16;93977.41;;;1.34;100.00
11345;BME280;5727;42.600;23.028;2023-01-29T09:09:42;93977.16;;;1.36;100.00
11345;BME280;5727;42.600;23.028;2023-01-29T09:12:09;93981.75;;;1.49;100.00
11345;BME280;5727;42.600;23.028;2023-01-29T09:14:37;93978.63;;;1.62;100.00
11345;BME280;5727;42.600;23.028;2023-01-29T09:17:05;93981.97;;;1.67;100.00
11345;BME280;5727;42.600;23.028;2023-01-29T09:19:33;93985.56;;;1.76;100.00
11345;BME280;5727;42.600;23.028;2023-01-29T09:22:01;93987.88;;;1.78;100.00
11345;BME280;5727;42.600;23.028;2023-01-29T09:24:29;93975.47;;;1.75;100.00
11345;BME280;5727;42.600;23.028;2023-01-29T09:26:57;93979.09;;;1.74;100.00
11345;BME280;5727;42.600;23.028;2023-01-29T09:29:24;93979.13;;;1.69;100.00
11345;BME280;5727;42.600;23.028;2023-01-29T09:31:52;93971.72;;;1.47;100.00
11345;BME280;5727;42.600;23.028;2023-01-29T09:34:20;93969.13;;;1.42;100.00
11345;BME280;5727;42.600;23.028;2023-01-29T09:36:47;93974.28;;;1.47;100.00
11345;BME280;5727;42.600;23.028;2023-01-29T09:39:15;93968.38;;;1.42;100.00
11345;BME280;5727;42.600;23.028;2023-01-29T09:41:47;93965.28;;;1.30;100.00
11345;BME280;5727;42.600;23.028;2023-01-29T09:44:23;93961.97;;;1.09;100.00
11345;BME280;5727;42.600;23.028;2023-01-29T09:46:54;93953.22;;;1.05;100.00
11345;BME280;5727;42.600;23.028;2023-01-29T09:49:29;93947.28;;;1.05;100.00
11345;BME280;5727;42.600;23.028;2023-01-29T09:52:02;93944.47;;;0.96;100.00
11345;BME280;5727;42.600;23.028;2023-01-29T09:54:34;93948.06;;;0.95;100.00
11345;BME280;5727;42.600;23.028;2023-01-29T09:57:09;93943.41;;;1.07;100.00
11345;BME280;5727;42.600;23.028;2023-01-29T09:59:40;93951.63;;;1.24;100.00
11345;BME280;5727;42.600;23.028;2023-01-29T10:02:09;93952.13;;;1.21;100.00
11345;BME280;5727;42.600;23.028;2023-01-29T10:05:00;93948.06;;;1.05;100.00
11345;BME280;5727;42.600;23.028;2023-01-29T10:07:51;93957.31;;;1.16;100.00
11345;BME280;5727;42.600;23.028;2023-01-29T10:10:40;93942.34;;;1.08;100.00
11345;BME280;5727;42.600;23.028;2023-01-29T10:13:14;93947.81;;;1.02;100.00
11345;BME280;5727;42.600;23.028;2023-01-29T10:15:51;93939.78;;;0.98;100.00
11345;BME280;5727;42.600;23.028;2023-01-29T10:18:40;93934.91;;;0.91;100.00
11345;BME280;5727;42.600;23.028;2023-01-29T10:21:23;93932.59;;;0.95;100.00
11345;BME280;5727;42.600;23.028;2023-01-29T10:23:56;93930.78;;;0.90;100.00
11345;BME280;5727;42.600;23.028;2023-01-29T10:26:30;93934.66;;;0.88;100.00
11345;BME280;5727;42.600;23.028;2023-01-29T10:28:59;93929.50;;;0.83;100.00
11345;BME280;5727;42.600;23.028;2023-01-29T10:31:30;93930.53;;;0.82;100.00
11345;BME280;5727;42.600;23.028;2023-01-29T10:34:00;93934.41;;;0.74;100.00
11345;BME280;5727;42.600;23.028;2023-01-29T10:36:39;93934.94;;;0.76;100.00
11345;BME280;5727;42.600;23.028;2023-01-29T10:39:14;93930.28;;;0.73;100.00
11345;BME280;5727;42.600;23.028;2023-01-29T10:42:07;93922.53;;;0.88;100.00
11345;BME280;5727;42.600;23.028;2023-01-29T10:44:47;93919.47;;;0.76;100.00
11345;BME280;5727;42.600;23.028;2023-01-29T10:50:16;93918.94;;;0.79;100.00
11345;BME280;5727;42.600;23.028;2023-01-29T10:52:57;93918.16;;;0.79;100.00
11345;BME280;5727;42.600;23.028;2023-01-29T10:55:40;93922.28;;;0.80;100.00
11345;BME280;5727;42.600;23.028;2023-01-29T10:58:18;93910.91;;;0.81;100.00
11345;BME280;5727;42.600;23.028;2023-01-29T11:00:47;93919.94;;;0.88;100.00
11345;BME280;5727;42.600;23.028;2023-01-29T11:03:21;93915.84;;;0.82;100.00
11345;BME280;5727;42.600;23.028;2023-01-29T11:05:51;93914.50;;;1.00;100.00
11345;BME280;5727;42.600;23.028;2023-01-29T11:08:24;93915.00;;;1.22;100.00
11345;BME280;5727;42.600;23.028;2023-01-29T11:10:59;93918.59;;;1.26;100.00
11345;BME280;5727;42.600;23.028;2023-01-29T11:13:33;93915.03;;;1.07;100.00
11345;BME280;5727;42.600;23.028;2023-01-29T11:16:03;93914.50;;;1.15;100.00
11345;BME280;5727;42.600;23.028;2023-01-29T11:18:48;93909.28;;;1.25;100.00
11345;BME280;5727;42.600;23.028;2023-01-29T11:21:15;93909.78;;;1.27;100.00
11345;BME280;5727;42.600;23.028;2023-01-29T11:23:43;93914.22;;;1.27;100.00
11345;BME280;5727;42.600;23.028;2023-01-29T11:26:12;93910.84;;;1.21;100.00
11345;BME280;5727;42.600;23.028;2023-01-29T11:28:41;93910.34;;;1.24;100.00
11345;BME280;5727;42.600;23.028;2023-01-29T11:31:17;93911.88;;;1.25;100.00
11345;BME280;5727;42.600;23.028;2023-01-29T11:33:44;93900.22;;;1.38;100.00
11345;BME280;5727;42.600;23.028;2023-01-29T11:36:20;93893.00;;;1.40;100.00
11345;BME280;5727;42.600;23.028;2023-01-29T11:39:09;93894.56;;;1.36;100.00
11345;BME280;5727;42.600;23.028;2023-01-29T11:41:41;93887.81;;;1.50;100.00
11345;BME280;5727;42.600;23.028;2023-01-29T11:44:17;93882.63;;;1.50;100.00
11345;BME280;5727;42.600;23.028;2023-01-29T11:46:44;93879.81;;;1.41;100.00
11345;BME280;5727;42.600;23.028;2023-01-29T11:49:31;93878.72;;;1.57;100.00
11345;BME280;5727;42.600;23.028;2023-01-29T11:52:00;93877.72;;;1.48;100.00
11345;BME280;5727;42.600;23.028;2023-01-29T11:54:31;93882.38;;;1.46;100.00
11345;BME280;5727;42.600;23.028;2023-01-29T11:57:00;93879.72;;;1.61;100.00
11345;BME280;5727;42.600;23.028;2023-01-29T11:59:35;93882.34;;;1.56;100.00
11345;BME280;5727;42.600;23.028;2023-01-29T12:02:11;93882.75;;;1.73;100.00
11345;BME280;5727;42.600;23.028;2023-01-29T12:04:40;93885.78;;;1.91;100.00
11345;BME280;5727;42.600;23.028;2023-01-29T12:07:11;93875.72;;;1.89;100.00
11345;BME280;5727;42.600;23.028;2023-01-29T12:09:48;93875.25;;;1.82;100.00
11345;BME280;5727;42.600;23.028;2023-01-29T12:12:25;93871.91;;;1.76;100.00
11345;BME280;5727;42.600;23.028;2023-01-29T12:15:03;93872.63;;;1.87;100.00
11345;BME280;5727;42.600;23.028;2023-01-29T12:17:32;93872.03;;;2.00;100.00
11345;BME280;5727;42.600;23.028;2023-01-29T12:20:09;93863.84;;;1.88;100.00
11345;BME280;5727;42.600;23.028;2023-01-29T12:22:44;93871.84;;;1.86;100.00
11345;BME280;5727;42.600;23.028;2023-01-29T12:25:20;93872.09;;;1.36;100.00
11345;BME280;5727;42.600;23.028;2023-01-29T12:27:53;93866.97;;;1.21;100.00
11345;BME280;5727;42.600;23.028;2023-01-29T12:30:26;93870.81;;;1.34;100.00
11345;BME280;5727;42.600;23.028;2023-01-29T12:32:59;93868.47;;;1.37;100.00
11345;BME280;5727;42.600;23.028;2023-01-29T12:35:30;93867.94;;;1.45;100.00
11345;BME280;5727;42.600;23.028;2023-01-29T12:38:02;93871.50;;;1.54;100.00
11345;BME280;5727;42.600;23.028;2023-01-29T12:40:33;93874.09;;;1.54;100.00
11345;BME280;5727;42.600;23.028;2023-01-29T12:43:10;93871.81;;;1.48;100.00
11345;BME280;5727;42.600;23.028;2023-01-29T12:45:38;93866.31;;;1.59;100.00
11345;BME280;5727;42.600;23.028;2023-01-29T12:48:09;93870.16;;;1.62;100.00
11345;BME280;5727;42.600;23.028;2023-01-29T12:50:37;93868.38;;;1.62;100.00
11345;BME280;5727;42.600;23.028;2023-01-29T12:53:11;93871.94;;;1.71;100.00
11345;BME280;5727;42.600;23.028;2023-01-29T12:55:50;93871.13;;;1.76;100.00
11345;BME280;5727;42.600;23.028;2023-01-29T12:58:22;93873.97;;;1.79;100.00
11345;BME280;5727;42.600;23.028;2023-01-29T13:00:55;93869.53;;;1.85;100.00
11345;BME280;5727;42.600;23.028;2023-01-29T13:03:28;93870.31;;;1.85;100.00
11345;BME280;5727;42.600;23.028;2023-01-29T13:06:01;93865.75;;;1.72;100.00
11345;BME280;5727;42.600;23.028;2023-01-29T13:08:36;93857.66;;;1.84;100.00
11345;BME280;5727;42.600;23.028;2023-01-29T13:11:09;93857.53;;;2.04;100.00
11345;BME280;5727;42.600;23.028;2023-01-29T13:13:43;93857.19;;;2.16;100.00
11345;BME280;5727;42.600;23.028;2023-01-29T13:16:19;93863.25;;;2.35;100.00
11345;BME280;5727;42.600;23.028;2023-01-29T13:18:51;93863.09;;;2.55;100.00
11345;BME280;5727;42.600;23.028;2023-01-29T13:21:21;93867.56;;;2.44;100.00
11345;BME280;5727;42.600;23.028;2023-01-29T13:23:51;93867.34;;;2.41;100.00